sensor_id;sensor_type;location;lat;lon;timestamp;P1;durP1;ratioP1;P2;durP2;ratioP2
5981;SDS011;3018;48.730;9.336;2023-04-15T00:00:43;2.90;;;2.60;;
5981;SDS011;3018;48.730;9.336;2023-04-15T00:03:09;3.28;;;2.35;;
5981;SDS011;3018;48.730;9.336;2023-04-15T00:05:36;3.60;;;2.42;;
5981;SDS011;3018;48.730;9.336;2023-04-15T00:08:02;4.43;;;2.50;;
5981;SDS011;3018;48.730;9.336;2023-04-15T00:10:29;2.97;;;2.75;;
5981;SDS011;3018;48.730;9.336;2023-04-15T00:12:55;3.35;;;2.70;;
5981;SDS011;3018;48.730;9.336;2023-04-15T00:15:23;7.35;;;3.05;;
5981;SDS011;3018;48.730;9.336;2023-04-15T00:17:50;3.20;;;2.90;;
5981;SDS011;3018;48.730;9.336;2023-04-15T00:20:16;3.42;;;3.15;;
5981;SDS011;3018;48.730;9.336;2023-04-15T00:22:43;2.97;;;2.78;;
5981;SDS011;3018;48.730;9.336;2023-04-15T00:25:09;7.28;;;2.92;;
5981;SDS011;3018;48.730;9.336;2023-04-15T00:27:35;3.33;;;3.00;;
5981;SDS011;3018;48.730;9.336;2023-04-15T00:30:02;3.15;;;2.85;;
5981;SDS011;3018;48.730;9.336;2023-04-15T00:32:30;2.97;;;2.78;;
5981;SDS011;3018;48.730;9.336;2023-04-15T00:34:56;3.75;;;2.80;;
5981;SDS011;3018;48.730;9.336;2023-04-15T00:37:23;3.40;;;3.00;;
5981;SDS011;3018;48.730;9.336;2023-04-15T00:39:49;4.70;;;3.22;;
5981;SDS011;3018;48.730;9.336;2023-04-15T00:42:16;3.58;;;3.22;;
5981;SDS011;3018;48.730;9.336;2023-04-15T00:44:43;7.75;;;3.20;;
5981;SDS011;3018;48.730;9.336;2023-04-15T00:47:09;4.10;;;3.47;;
5981;SDS011;3018;48.730;9.336;2023-04-15T00:49:37;4.78;;;3.25;;
5981;SDS011;3018;48.730;9.336;2023-04-15T00:52:03;4.30;;;2.63;;
5981;SDS011;3018;48.730;9.336;2023-04-15T00:54:30;3.45;;;2.90;;
5981;SDS011;3018;48.730;9.336;2023-04-15T00:56:56;4.78;;;3.17;;
5981;SDS011;3018;48.730;9.336;2023-04-15T00:59:23;4.15;;;3.30;;
5981;SDS011;3018;48.730;9.336;2023-04-15T01:01:50;6.93;;;3.28;;
5981;SDS011;3018;48.730;9.336;2023-04-15T01:04:16;6.18;;;3.00;;
5981;SDS011;3018;48.730;9.336;2023-04-15T01:06:44;7.05;;;3.67;;
5981;SDS011;3018;48.730;9.336;2023-04-15T01:09:10;6.63;;;3.35;;
5981;SDS011;3018;48.730;9.336;2023-04-15T01:11:36;7.30;;;4.13;;
5981;SDS011;3018;48.730;9.336;2023-04-15T01:14:03;8.63;;;4.63;;
5981;SDS011;3018;48.730;9.336;2023-04-15T01:16:31;6.13;;;3.45;;
5981;SDS011;3018;48.730;9.336;2023-04-15T01:18:57;7.93;;;4.00;;
5981;SDS011;3018;48.730;9.336;2023-04-15T01:21:24;5.57;;;4.22;;
5981;SDS011;3018;48.730;9.336;2023-04-15T01:23:52;5.05;;;3.88;;
5981;SDS011;3018;48.730;9.336;2023-04-15T01:26:19;4.53;;;3.22;;
5981;SDS011;3018;48.730;9.336;2023-04-15T01:28:47;4.55;;;3.67;;
5981;SDS011;3018;48.730;9.336;2023-04-15T01:31:14;6.60;;;4.28;;
5981;SDS011;3018;48.730;9.336;2023-04-15T01:33:41;4.63;;;3.17;;
5981;SDS011;3018;48.730;9.336;2023-04-15T01:36:08;6.15;;;3.65;;
5981;SDS011;3018;48.730;9.336;2023-04-15T01:38:35;5.03;;;3.80;;
5981;SDS011;3018;48.730;9.336;2023-04-15T01:41:01;5.85;;;4.00;;
5981;SDS011;3018;48.730;9.336;2023-04-15T01:43:29;6.03;;;3.95;;
5981;SDS011;3018;48.730;9.336;2023-04-15T01:45:56;5.75;;;3.83;;
5981;SDS011;3018;48.730;9.336;2023-04-15T01:48:22;8.15;;;4.00;;
5981;SDS011;3018;48.730;9.336;2023-04-15T01:50:48;4.20;;;3.38;;
5981;SDS011;3018;48.730;9.336;2023-04-15T01:53:15;7.20;;;4.13;;
5981;SDS011;3018;48.730;9.336;2023-04-15T01:55:42;5.03;;;3.80;;
5981;SDS011;3018;48.730;9.336;2023-04-15T01:58:08;6.85;;;3.63;;
5981;SDS011;3018;48.730;9.336;2023-04-15T02:00:36;6.78;;;3.80;;
5981;SDS011;3018;48.730;9.336;2023-04-15T02:03:02;3.97;;;3.38;;
5981;SDS011;3018;48.730;9.336;2023-04-15T02:05:29;6.00;;;4.10;;
5981;SDS011;3018;48.730;9.336;2023-04-15T02:07:56;5.18;;;3.83;;
5981;SDS011;3018;48.730;9.336;2023-04-15T02:10:22;6.20;;;4.18;;
5981;SDS011;3018;48.730;9.336;2023-04-15T02:12:48;5.85;;;3.60;;
5981;SDS011;3018;48.730;9.336;2023-04-15T02:15:14;5.82;;;3.75;;
5981;SDS011;3018;48.730;9.336;2023-04-15T02:17:42;4.78;;;4.00;;
5981;SDS011;3018;48.730;9.336;2023-04-15T02:20:14;4.13;;;3.63;;
5981;SDS011;3018;48.730;9.336;2023-04-15T02:22:41;4.45;;;3.40;;
5981;SDS011;3018;48.730;9.336;2023-04-15T02:25:07;4.35;;;3.00;;
5981;SDS011;3018;48.730;9.336;2023-04-15T02:27:34;5.55;;;3.25;;
5981;SDS011;3018;48.730;9.336;2023-04-15T02:30:00;3.83;;;3.40;;
5981;SDS011;3018;48.730;9.336;2023-04-15T02:32:27;4.45;;;3.50;;
5981;SDS011;3018;48.730;9.336;2023-04-15T02:34:54;5.10;;;3.40;;
5981;SDS011;3018;48.730;9.336;2023-04-15T02:37:21;3.13;;;2.92;;
5981;SDS011;3018;48.730;9.336;2023-04-15T02:39:47;3.95;;;3.10;;
5981;SDS011;3018;48.730;9.336;2023-04-15T02:42:14;4.53;;;3.75;;
5981;SDS011;3018;48.730;9.336;2023-04-15T02:44:40;4.05;;;3.60;;
5981;SDS011;3018;48.730;9.336;2023-04-15T02:47:06;5.22;;;3.50;;
5981;SDS011;3018;48.730;9.336;2023-04-15T02:49:32;5.10;;;3.75;;
5981;SDS011;3018;48.730;9.336;2023-04-15T02:52:00;3.70;;;3.47;;
5981;SDS011;3018;48.730;9.336;2023-04-15T02:54:26;3.72;;;3.33;;
5981;SDS011;3018;48.730;9.336;2023-04-15T02:56:53;5.60;;;3.83;;
5981;SDS011;3018;48.730;9.336;2023-04-15T02:59:20;5.53;;;3.75;;
5981;SDS011;3018;48.730;9.336;2023-04-15T03:01:46;5.15;;;3.47;;
5981;SDS011;3018;48.730;9.336;2023-04-15T03:04:13;4.10;;;3.78;;
5981;SDS011;3018;48.730;9.336;2023-04-15T03:06:39;6.90;;;3.55;;
5981;SDS011;3018;48.730;9.336;2023-04-15T03:09:07;5.50;;;3.55;;
5981;SDS011;3018;48.730;9.336;2023-04-15T03:11:34;3.78;;;3.47;;
5981;SDS011;3018;48.730;9.336;2023-04-15T03:14:04;5.85;;;4.00;;
5981;SDS011;3018;48.730;9.336;2023-04-15T03:16:30;4.75;;;4.32;;
5981;SDS011;3018;48.730;9.336;2023-04-15T03:18:57;4.32;;;3.92;;
5981;SDS011;3018;48.730;9.336;2023-04-15T03:21:23;5.88;;;3.97;;
5981;SDS011;3018;48.730;9.336;2023-04-15T03:23:49;4.65;;;4.22;;
5981;SDS011;3018;48.730;9.336;2023-04-15T03:26:24;4.28;;;3.85;;
5981;SDS011;3018;48.730;9.336;2023-04-15T03:28:51;4.45;;;3.83;;
5981;SDS011;3018;48.730;9.336;2023-04-15T03:31:17;8.23;;;3.75;;
5981;SDS011;3018;48.730;9.336;2023-04-15T03:33:43;7.22;;;4.57;;
5981;SDS011;3018;48.730;9.336;2023-04-15T03:36:09;7.25;;;4.53;;
5981;SDS011;3018;48.730;9.336;2023-04-15T03:38:36;8.10;;;4.03;;
5981;SDS011;3018;48.730;9.336;2023-04-15T03:41:02;8.98;;;5.05;;
5981;SDS011;3018;48.730;9.336;2023-04-15T03:43:30;6.32;;;4.57;;
5981;SDS011;3018;48.730;9.336;2023-04-15T03:45:56;4.57;;;3.90;;
5981;SDS011;3018;48.730;9.336;2023-04-15T03:48:22;5.75;;;4.13;;
5981;SDS011;3018;48.730;9.336;2023-04-15T03:50:49;4.68;;;3.88;;
5981;SDS011;3018;48.730;9.336;2023-04-15T03:53:15;4.30;;;3.90;;
5981;SDS011;3018;48.730;9.336;2023-04-15T03:55:41;10.93;;;4.30;;
5981;SDS011;3018;48.730;9.336;2023-04-15T03:58:08;4.95;;;4.13;;
5981;SDS011;3018;48.730;9.336;2023-04-15T04:00:38;7.38;;;4.03;;
5981;SDS011;3018;48.730;9.336;2023-04-15T04:03:05;6.60;;;4.25;;
5981;SDS011;3018;48.730;9.336;2023-04-15T04:05:32;8.93;;;4.10;;
5981;SDS011;3018;48.730;9.336;2023-04-15T04:08:01;6.75;;;4.70;;
5981;SDS011;3018;48.730;9.336;2023-04-15T04:10:27;6.07;;;3.88;;
5981;SDS011;3018;48.730;9.336;2023-04-15T04:12:53;6.63;;;4.75;;
5981;SDS011;3018;48.730;9.336;2023-04-15T04:15:19;5.07;;;4.32;;
5981;SDS011;3018;48.730;9.336;2023-04-15T04:17:47;9.07;;;4.25;;
5981;SDS011;3018;48.730;9.336;2023-04-15T04:20:13;7.32;;;4.30;;
5981;SDS011;3018;48.730;9.336;2023-04-15T04:22:40;5.70;;;4.40;;
5981;SDS011;3018;48.730;9.336;2023-04-15T04:25:06;6.13;;;4.50;;
5981;SDS011;3018;48.730;9.336;2023-04-15T04:27:34;6.20;;;4.05;;
5981;SDS011;3018;48.730;9.336;2023-04-15T04:30:00;8.90;;;4.50;;
5981;SDS011;3018;48.730;9.336;2023-04-15T04:32:26;11.18;;;4.70;;
5981;SDS011;3018;48.730;9.336;2023-04-15T04:34:54;6.13;;;4.32;;
5981;SDS011;3018;48.730;9.336;2023-04-15T04:37:20;4.22;;;3.80;;
5981;SDS011;3018;48.730;9.336;2023-04-15T04:39:47;9.20;;;4.32;;
5981;SDS011;3018;48.730;9.336;2023-04-15T04:42:13;9.77;;;4.47;;
5981;SDS011;3018;48.730;9.336;2023-04-15T04:44:40;8.57;;;4.50;;
5981;SDS011;3018;48.730;9.336;2023-04-15T04:47:06;6.35;;;4.80;;
5981;SDS011;3018;48.730;9.336;2023-04-15T04:49:32;6.78;;;4.40;;
5981;SDS011;3018;48.730;9.336;2023-04-15T04:52:00;7.00;;;4.35;;
5981;SDS011;3018;48.730;9.336;2023-04-15T04:54:27;7.22;;;4.68;;
5981;SDS011;3018;48.730;9.336;2023-04-15T04:56:54;4.68;;;4.25;;
5981;SDS011;3018;48.730;9.336;2023-04-15T04:59:21;6.32;;;4.13;;
5981;SDS011;3018;48.730;9.336;2023-04-15T05:01:48;6.55;;;4.63;;
5981;SDS011;3018;48.730;9.336;2023-04-15T05:04:14;5.22;;;4.00;;
5981;SDS011;3018;48.730;9.336;2023-04-15T05:06:40;7.13;;;4.90;;
5981;SDS011;3018;48.730;9.336;2023-04-15T05:09:08;5.32;;;4.25;;
5981;SDS011;3018;48.730;9.336;2023-04-15T05:11:34;5.90;;;5.28;;
5981;SDS011;3018;48.730;9.336;2023-04-15T05:14:00;5.03;;;4.53;;
5981;SDS011;3018;48.730;9.336;2023-04-15T05:16:27;7.60;;;4.28;;
5981;SDS011;3018;48.730;9.336;2023-04-15T05:18:53;4.45;;;4.03;;
5981;SDS011;3018;48.730;9.336;2023-04-15T05:21:19;6.50;;;4.80;;
5981;SDS011;3018;48.730;9.336;2023-04-15T05:23:46;5.88;;;5.00;;
5981;SDS011;3018;48.730;9.336;2023-04-15T05:26:13;7.43;;;4.97;;
5981;SDS011;3018;48.730;9.336;2023-04-15T05:28:40;8.57;;;4.50;;
5981;SDS011;3018;48.730;9.336;2023-04-15T05:31:06;6.13;;;4.85;;
5981;SDS011;3018;48.730;9.336;2023-04-15T05:33:32;5.15;;;4.10;;
5981;SDS011;3018;48.730;9.336;2023-04-15T05:35:59;11.88;;;4.47;;
5981;SDS011;3018;48.730;9.336;2023-04-15T05:38:25;6.78;;;4.50;;
5981;SDS011;3018;48.730;9.336;2023-04-15T05:40:51;5.78;;;4.50;;
5981;SDS011;3018;48.730;9.336;2023-04-15T05:43:19;12.35;;;4.93;;
5981;SDS011;3018;48.730;9.336;2023-04-15T05:45:45;6.40;;;4.22;;
5981;SDS011;3018;48.730;9.336;2023-04-15T05:48:11;8.70;;;4.80;;
5981;SDS011;3018;48.730;9.336;2023-04-15T05:50:39;5.32;;;4.43;;
5981;SDS011;3018;48.730;9.336;2023-04-15T05:53:05;5.97;;;4.95;;
5981;SDS011;3018;48.730;9.336;2023-04-15T05:55:32;5.45;;;4.35;;
5981;SDS011;3018;48.730;9.336;2023-04-15T05:57:58;6.32;;;4.57;;
5981;SDS011;3018;48.730;9.336;2023-04-15T06:00:26;7.10;;;4.68;;
5981;SDS011;3018;48.730;9.336;2023-04-15T06:02:52;8.45;;;5.13;;
5981;SDS011;3018;48.730;9.336;2023-04-15T06:05:18;5.57;;;4.57;;
5981;SDS011;3018;48.730;9.336;2023-04-15T06:07:45;5.93;;;4.43;;
5981;SDS011;3018;48.730;9.336;2023-04-15T06:10:11;5.97;;;5.03;;
5981;SDS011;3018;48.730;9.336;2023-04-15T06:12:37;8.80;;;4.93;;
5981;SDS011;3018;48.730;9.336;2023-04-15T06:15:04;7.57;;;4.70;;
5981;SDS011;3018;48.730;9.336;2023-04-15T06:17:32;7.53;;;4.43;;
5981;SDS011;3018;48.730;9.336;2023-04-15T06:19:58;8.65;;;4.25;;
5981;SDS011;3018;48.730;9.336;2023-04-15T06:22:25;6.35;;;4.35;;
5981;SDS011;3018;48.730;9.336;2023-04-15T06:24:53;6.07;;;3.80;;
5981;SDS011;3018;48.730;9.336;2023-04-15T06:27:19;7.13;;;4.22;;
5981;SDS011;3018;48.730;9.336;2023-04-15T06:29:47;8.68;;;4.75;;
5981;SDS011;3018;48.730;9.336;2023-04-15T06:32:13;7.68;;;4.50;;
5981;SDS011;3018;48.730;9.336;2023-04-15T06:34:41;10.00;;;4.72;;
5981;SDS011;3018;48.730;9.336;2023-04-15T06:37:07;7.10;;;4.10;;
5981;SDS011;3018;48.730;9.336;2023-04-15T06:39:35;7.75;;;4.13;;
5981;SDS011;3018;48.730;9.336;2023-04-15T06:42:01;5.63;;;3.70;;
5981;SDS011;3018;48.730;9.336;2023-04-15T06:44:28;5.05;;;3.45;;
5981;SDS011;3018;48.730;9.336;2023-04-15T06:46:54;7.47;;;4.05;;
5981;SDS011;3018;48.730;9.336;2023-04-15T06:49:21;5.00;;;4.10;;
5981;SDS011;3018;48.730;9.336;2023-04-15T06:51:48;5.85;;;4.07;;
5981;SDS011;3018;48.730;9.336;2023-04-15T06:54:15;5.85;;;4.28;;
5981;SDS011;3018;48.730;9.336;2023-04-15T06:56:41;6.60;;;3.78;;
5981;SDS011;3018;48.730;9.336;2023-04-15T06:59:08;6.05;;;4.28;;
5981;SDS011;3018;48.730;9.336;2023-04-15T07:01:34;8.32;;;4.15;;
5981;SDS011;3018;48.730;9.336;2023-04-15T07:04:01;4.22;;;3.83;;
5981;SDS011;3018;48.730;9.336;2023-04-15T07:06:27;4.65;;;3.70;;
5981;SDS011;3018;48.730;9.336;2023-04-15T07:08:54;5.03;;;3.78;;
5981;SDS011;3018;48.730;9.336;2023-04-15T07:11:21;7.22;;;3.53;;
5981;SDS011;3018;48.730;9.336;2023-04-15T07:13:47;5.90;;;3.83;;
5981;SDS011;3018;48.730;9.336;2023-04-15T07:16:14;4.63;;;3.88;;
5981;SDS011;3018;48.730;9.336;2023-04-15T07:18:40;10.15;;;3.65;;
5981;SDS011;3018;48.730;9.336;2023-04-15T07:21:06;9.82;;;3.92;;
5981;SDS011;3018;48.730;9.336;2023-04-15T07:23:32;6.05;;;3.95;;
5981;SDS011;3018;48.730;9.336;2023-04-15T07:26:00;5.63;;;4.60;;
5981;SDS011;3018;48.730;9.336;2023-04-15T07:28:26;6.03;;;3.92;;
5981;SDS011;3018;48.730;9.336;2023-04-15T07:30:53;4.53;;;4.13;;
5981;SDS011;3018;48.730;9.336;2023-04-15T07:33:21;4.30;;;3.90;;
5981;SDS011;3018;48.730;9.336;2023-04-15T07:35:47;9.27;;;4.82;;
5981;SDS011;3018;48.730;9.336;2023-04-15T07:38:14;5.78;;;4.15;;
5981;SDS011;3018;48.730;9.336;2023-04-15T07:40:40;7.15;;;4.07;;
5981;SDS011;3018;48.730;9.336;2023-04-15T07:43:08;4.80;;;4.25;;
5981;SDS011;3018;48.730;9.336;2023-04-15T07:45:34;5.22;;;4.10;;
5981;SDS011;3018;48.730;9.336;2023-04-15T07:48:01;9.32;;;4.18;;
5981;SDS011;3018;48.730;9.336;2023-04-15T07:50:27;8.55;;;4.50;;
5981;SDS011;3018;48.730;9.336;2023-04-15T07:52:54;4.50;;;4.10;;
5981;SDS011;3018;48.730;9.336;2023-04-15T07:55:20;7.75;;;4.20;;
5981;SDS011;3018;48.730;9.336;2023-04-15T07:57:47;4.25;;;3.83;;
5981;SDS011;3018;48.730;9.336;2023-04-15T08:00:15;5.70;;;4.28;;
5981;SDS011;3018;48.730;9.336;2023-04-15T08:02:42;5.18;;;4.13;;
5981;SDS011;3018;48.730;9.336;2023-04-15T08:05:08;5.20;;;4.65;;
5981;SDS011;3018;48.730;9.336;2023-04-15T08:07:35;6.22;;;4.40;;
5981;SDS011;3018;48.730;9.336;2023-04-15T08:10:01;6.82;;;4.45;;
5981;SDS011;3018;48.730;9.336;2023-04-15T08:12:27;6.68;;;3.92;;
5981;SDS011;3018;48.730;9.336;2023-04-15T08:14:54;6.85;;;4.60;;
5981;SDS011;3018;48.730;9.336;2023-04-15T08:17:21;8.55;;;4.43;;
5981;SDS011;3018;48.730;9.336;2023-04-15T08:19:48;6.00;;;4.60;;
5981;SDS011;3018;48.730;9.336;2023-04-15T08:22:14;6.95;;;4.07;;
5981;SDS011;3018;48.730;9.336;2023-04-15T08:24:41;5.63;;;4.10;;
5981;SDS011;3018;48.730;9.336;2023-04-15T08:27:07;7.38;;;3.83;;
5981;SDS011;3018;48.730;9.336;2023-04-15T08:29:34;5.68;;;4.13;;
5981;SDS011;3018;48.730;9.336;2023-04-15T08:32:00;7.22;;;4.13;;
5981;SDS011;3018;48.730;9.336;2023-04-15T08:34:28;5.47;;;3.83;;
5981;SDS011;3018;48.730;9.336;2023-04-15T08:36:54;9.63;;;3.80;;
5981;SDS011;3018;48.730;9.336;2023-04-15T08:39:21;6.60;;;4.20;;
5981;SDS011;3018;48.730;9.336;2023-04-15T08:41:50;6.15;;;4.40;;
5981;SDS011;3018;48.730;9.336;2023-04-15T08:44:17;9.30;;;4.25;;
5981;SDS011;3018;48.730;9.336;2023-04-15T08:46:44;9.30;;;4.20;;
5981;SDS011;3018;48.730;9.336;2023-04-15T08:49:10;9.27;;;4.05;;
5981;SDS011;3018;48.730;9.336;2023-04-15T08:51:39;6.63;;;3.92;;
5981;SDS011;3018;48.730;9.336;2023-04-15T08:54:05;11.23;;;4.60;;
5981;SDS011;3018;48.730;9.336;2023-04-15T08:56:32;8.45;;;3.90;;
5981;SDS011;3018;48.730;9.336;2023-04-15T08:58:59;6.43;;;3.17;;
5981;SDS011;3018;48.730;9.336;2023-04-15T09:01:25;6.47;;;3.40;;
5981;SDS011;3018;48.730;9.336;2023-04-15T09:03:52;5.70;;;2.92;;
5981;SDS011;3018;48.730;9.336;2023-04-15T09:06:19;5.28;;;3.13;;
5981;SDS011;3018;48.730;9.336;2023-04-15T09:08:47;6.63;;;3.30;;
5981;SDS011;3018;48.730;9.336;2023-04-15T09:11:13;6.82;;;3.40;;
5981;SDS011;3018;48.730;9.336;2023-04-15T09:13:39;7.63;;;3.10;;
5981;SDS011;3018;48.730;9.336;2023-04-15T09:16:06;3.65;;;2.53;;
5981;SDS011;3018;48.730;9.336;2023-04-15T09:18:34;5.20;;;3.35;;
5981;SDS011;3018;48.730;9.336;2023-04-15T09:21:04;4.60;;;3.28;;
5981;SDS011;3018;48.730;9.336;2023-04-15T09:23:31;8.07;;;3.85;;
5981;SDS011;3018;48.730;9.336;2023-04-15T09:25:58;6.65;;;3.33;;
5981;SDS011;3018;48.730;9.336;2023-04-15T09:28:25;6.43;;;3.03;;
5981;SDS011;3018;48.730;9.336;2023-04-15T09:30:54;6.10;;;2.70;;
5981;SDS011;3018;48.730;9.336;2023-04-15T09:33:20;7.00;;;3.10;;
5981;SDS011;3018;48.730;9.336;2023-04-15T09:35:54;4.05;;;3.00;;
5981;SDS011;3018;48.730;9.336;2023-04-15T09:38:21;3.83;;;2.70;;
5981;SDS011;3018;48.730;9.336;2023-04-15T09:40:47;2.60;;;2.38;;
5981;SDS011;3018;48.730;9.336;2023-04-15T09:43:15;2.78;;;2.53;;
5981;SDS011;3018;48.730;9.336;2023-04-15T09:45:45;2.67;;;2.47;;
5981;SDS011;3018;48.730;9.336;2023-04-15T09:48:16;3.15;;;2.55;;
5981;SDS011;3018;48.730;9.336;2023-04-15T09:50:42;2.50;;;2.30;;
5981;SDS011;3018;48.730;9.336;2023-04-15T09:53:09;2.35;;;1.85;;
5981;SDS011;3018;48.730;9.336;2023-04-15T09:55:35;5.43;;;1.85;;
5981;SDS011;3018;48.730;9.336;2023-04-15T09:58:01;3.33;;;1.90;;
5981;SDS011;3018;48.730;9.336;2023-04-15T10:00:34;4.78;;;1.40;;
5981;SDS011;3018;48.730;9.336;2023-04-15T10:03:01;3.13;;;1.60;;
5981;SDS011;3018;48.730;9.336;2023-04-15T10:05:27;2.22;;;1.65;;
5981;SDS011;3018;48.730;9.336;2023-04-15T10:07:54;4.25;;;1.80;;
5981;SDS011;3018;48.730;9.336;2023-04-15T10:10:20;2.95;;;2.30;;
5981;SDS011;3018;48.730;9.336;2023-04-15T10:12:47;4.25;;;2.15;;
5981;SDS011;3018;48.730;9.336;2023-04-15T10:15:14;3.83;;;1.73;;
5981;SDS011;3018;48.730;9.336;2023-04-15T10:17:43;3.75;;;1.98;;
5981;SDS011;3018;48.730;9.336;2023-04-15T10:20:10;2.85;;;1.98;;
5981;SDS011;3018;48.730;9.336;2023-04-15T10:22:38;4.35;;;1.98;;
5981;SDS011;3018;48.730;9.336;2023-04-15T10:25:05;2.60;;;2.08;;
5981;SDS011;3018;48.730;9.336;2023-04-15T10:27:32;2.25;;;1.77;;
5981;SDS011;3018;48.730;9.336;2023-04-15T10:29:59;3.00;;;1.80;;
5981;SDS011;3018;48.730;9.336;2023-04-15T10:32:26;4.10;;;1.98;;
5981;SDS011;3018;48.730;9.336;2023-04-15T10:34:54;3.47;;;2.00;;
5981;SDS011;3018;48.730;9.336;2023-04-15T10:37:24;3.17;;;2.00;;
5981;SDS011;3018;48.730;9.336;2023-04-15T10:39:58;6.90;;;2.65;;
5981;SDS011;3018;48.730;9.336;2023-04-15T10:42:24;2.92;;;1.95;;
5981;SDS011;3018;48.730;9.336;2023-04-15T10:44:58;2.45;;;1.73;;
5981;SDS011;3018;48.730;9.336;2023-04-15T10:47:25;4.22;;;1.90;;
5981;SDS011;3018;48.730;9.336;2023-04-15T10:49:51;6.75;;;1.88;;
5981;SDS011;3018;48.730;9.336;2023-04-15T10:52:24;6.72;;;1.92;;
5981;SDS011;3018;48.730;9.336;2023-04-15T10:55:00;4.13;;;1.90;;
5981;SDS011;3018;48.730;9.336;2023-04-15T10:57:27;1.98;;;1.80;;
5981;SDS011;3018;48.730;9.336;2023-04-15T11:00:00;3.20;;;2.00;;
5981;SDS011;3018;48.730;9.336;2023-04-15T11:02:42;6.07;;;1.90;;
5981;SDS011;3018;48.730;9.336;2023-04-15T11:05:08;4.35;;;1.98;;
5981;SDS011;3018;48.730;9.336;2023-04-15T11:07:37;4.47;;;1.90;;
5981;SDS011;3018;48.730;9.336;2023-04-15T11:10:03;4.13;;;2.05;;
5981;SDS011;3018;48.730;9.336;2023-04-15T11:12:50;8.43;;;1.85;;
5981;SDS011;3018;48.730;9.336;2023-04-15T11:15:27;4.65;;;2.42;;
5981;SDS011;3018;48.730;9.336;2023-04-15T11:17:54;3.90;;;2.13;;
5981;SDS011;3018;48.730;9.336;2023-04-15T11:20:20;5.15;;;2.22;;
5981;SDS011;3018;48.730;9.336;2023-04-15T11:22:48;5.05;;;2.40;;
5981;SDS011;3018;48.730;9.336;2023-04-15T11:25:21;5.60;;;2.15;;
5981;SDS011;3018;48.730;9.336;2023-04-15T11:27:48;3.92;;;2.22;;
5981;SDS011;3018;48.730;9.336;2023-04-15T11:30:18;2.78;;;2.45;;
5981;SDS011;3018;48.730;9.336;2023-04-15T11:32:45;5.75;;;2.42;;
5981;SDS011;3018;48.730;9.336;2023-04-15T11:35:12;3.13;;;2.25;;
5981;SDS011;3018;48.730;9.336;2023-04-15T11:37:38;3.92;;;2.33;;
5981;SDS011;3018;48.730;9.336;2023-04-15T11:40:06;2.40;;;2.20;;
5981;SDS011;3018;48.730;9.336;2023-04-15T11:42:33;5.65;;;2.60;;
5981;SDS011;3018;48.730;9.336;2023-04-15T11:45:05;4.05;;;2.25;;
5981;SDS011;3018;48.730;9.336;2023-04-15T11:47:31;4.35;;;2.03;;
5981;SDS011;3018;48.730;9.336;2023-04-15T11:50:05;4.50;;;2.35;;
5981;SDS011;3018;48.730;9.336;2023-04-15T11:52:38;4.25;;;2.70;;
5981;SDS011;3018;48.730;9.336;2023-04-15T11:55:06;3.28;;;2.80;;
5981;SDS011;3018;48.730;9.336;2023-04-15T11:57:33;3.20;;;2.40;;
5981;SDS011;3018;48.730;9.336;2023-04-15T12:00:00;4.47;;;2.50;;
5981;SDS011;3018;48.730;9.336;2023-04-15T12:02:29;5.05;;;2.90;;
5981;SDS011;3018;48.730;9.336;2023-04-15T12:05:01;4.65;;;2.63;;
5981;SDS011;3018;48.730;9.336;2023-04-15T12:07:27;3.30;;;3.10;;
5981;SDS011;3018;48.730;9.336;2023-04-15T12:09:54;4.57;;;3.00;;
5981;SDS011;3018;48.730;9.336;2023-04-15T12:12:22;4.13;;;3.05;;
5981;SDS011;3018;48.730;9.336;2023-04-15T12:14:51;5.78;;;3.00;;
5981;SDS011;3018;48.730;9.336;2023-04-15T12:17:17;5.22;;;3.35;;
5981;SDS011;3018;48.730;9.336;2023-04-15T12:19:44;8.82;;;4.22;;
5981;SDS011;3018;48.730;9.336;2023-04-15T12:22:10;5.43;;;3.88;;
5981;SDS011;3018;48.730;9.336;2023-04-15T12:24:37;7.18;;;4.25;;
5981;SDS011;3018;48.730;9.336;2023-04-15T12:27:04;6.18;;;3.53;;
5981;SDS011;3018;48.730;9.336;2023-04-15T12:29:32;5.40;;;3.47;;
5981;SDS011;3018;48.730;9.336;2023-04-15T12:32:03;2.83;;;2.20;;
5981;SDS011;3018;48.730;9.336;2023-04-15T12:34:30;3.67;;;2.00;;
5981;SDS011;3018;48.730;9.336;2023-04-15T12:36:57;2.13;;;1.98;;
5981;SDS011;3018;48.730;9.336;2023-04-15T12:39:24;4.72;;;2.03;;
5981;SDS011;3018;48.730;9.336;2023-04-15T12:41:51;4.65;;;2.28;;
5981;SDS011;3018;48.730;9.336;2023-04-15T12:44:17;2.47;;;2.25;;
5981;SDS011;3018;48.730;9.336;2023-04-15T12:46:45;4.50;;;3.03;;
5981;SDS011;3018;48.730;9.336;2023-04-15T12:49:11;7.30;;;3.20;;
5981;SDS011;3018;48.730;9.336;2023-04-15T12:51:39;3.47;;;3.08;;
5981;SDS011;3018;48.730;9.336;2023-04-15T12:54:06;6.82;;;3.28;;
5981;SDS011;3018;48.730;9.336;2023-04-15T12:56:32;5.95;;;3.20;;
5981;SDS011;3018;48.730;9.336;2023-04-15T12:58:58;4.55;;;3.28;;
5981;SDS011;3018;48.730;9.336;2023-04-15T13:01:25;4.57;;;3.33;;
5981;SDS011;3018;48.730;9.336;2023-04-15T13:03:52;3.42;;;3.15;;
5981;SDS011;3018;48.730;9.336;2023-04-15T13:06:19;3.67;;;3.38;;
5981;SDS011;3018;48.730;9.336;2023-04-15T13:08:45;4.00;;;3.10;;
5981;SDS011;3018;48.730;9.336;2023-04-15T13:11:11;2.60;;;2.50;;
5981;SDS011;3018;48.730;9.336;2023-04-15T13:13:38;3.38;;;2.75;;
5981;SDS011;3018;48.730;9.336;2023-04-15T13:16:04;2.90;;;2.60;;
5981;SDS011;3018;48.730;9.336;2023-04-15T13:18:31;4.57;;;2.13;;
5981;SDS011;3018;48.730;9.336;2023-04-15T13:21:00;3.00;;;2.58;;
5981;SDS011;3018;48.730;9.336;2023-04-15T13:23:26;2.60;;;2.40;;
5981;SDS011;3018;48.730;9.336;2023-04-15T13:25:53;2.58;;;2.33;;
5981;SDS011;3018;48.730;9.336;2023-04-15T13:28:19;3.08;;;2.53;;
5981;SDS011;3018;48.730;9.336;2023-04-15T13:30:45;5.18;;;2.80;;
5981;SDS011;3018;48.730;9.336;2023-04-15T13:33:12;2.95;;;2.00;;
5981;SDS011;3018;48.730;9.336;2023-04-15T13:35:39;3.38;;;2.38;;
5981;SDS011;3018;48.730;9.336;2023-04-15T13:38:06;4.63;;;1.90;;
5981;SDS011;3018;48.730;9.336;2023-04-15T13:40:33;2.25;;;1.73;;
5981;SDS011;3018;48.730;9.336;2023-04-15T13:42:59;2.28;;;2.08;;
5981;SDS011;3018;48.730;9.336;2023-04-15T13:45:26;2.65;;;2.45;;
5981;SDS011;3018;48.730;9.336;2023-04-15T13:47:52;5.00;;;2.38;;
5981;SDS011;3018;48.730;9.336;2023-04-15T13:50:18;4.22;;;2.10;;
5981;SDS011;3018;48.730;9.336;2023-04-15T13:52:44;3.15;;;2.33;;
5981;SDS011;3018;48.730;9.336;2023-04-15T13:55:12;4.13;;;2.38;;
5981;SDS011;3018;48.730;9.336;2023-04-15T13:57:38;2.85;;;1.90;;
5981;SDS011;3018;48.730;9.336;2023-04-15T14:00:05;3.50;;;2.58;;
5981;SDS011;3018;48.730;9.336;2023-04-15T14:02:31;4.10;;;3.25;;
5981;SDS011;3018;48.730;9.336;2023-04-15T14:04:58;6.13;;;3.75;;
5981;SDS011;3018;48.730;9.336;2023-04-15T14:07:24;5.97;;;3.00;;
5981;SDS011;3018;48.730;9.336;2023-04-15T14:09:50;3.95;;;2.20;;
5981;SDS011;3018;48.730;9.336;2023-04-15T14:12:18;1.50;;;1.45;;
5981;SDS011;3018;48.730;9.336;2023-04-15T14:14:44;0.80;;;0.80;;
5981;SDS011;3018;48.730;9.336;2023-04-15T14:17:10;3.90;;;1.05;;
5981;SDS011;3018;48.730;9.336;2023-04-15T14:19:36;1.13;;;1.10;;
5981;SDS011;3018;48.730;9.336;2023-04-15T14:22:03;1.05;;;1.05;;
5981;SDS011;3018;48.730;9.336;2023-04-15T14:24:29;1.48;;;0.70;;
5981;SDS011;3018;48.730;9.336;2023-04-15T14:26:55;0.93;;;0.93;;
5981;SDS011;3018;48.730;9.336;2023-04-15T14:29:23;1.67;;;1.25;;
5981;SDS011;3018;48.730;9.336;2023-04-15T14:31:50;1.15;;;1.00;;
5981;SDS011;3018;48.730;9.336;2023-04-15T14:34:16;1.58;;;1.45;;
5981;SDS011;3018;48.730;9.336;2023-04-15T14:36:43;6.55;;;1.45;;
5981;SDS011;3018;48.730;9.336;2023-04-15T14:39:09;2.20;;;1.15;;
5981;SDS011;3018;48.730;9.336;2023-04-15T14:41:35;1.02;;;0.90;;
5981;SDS011;3018;48.730;9.336;2023-04-15T14:44:02;1.23;;;1.20;;
5981;SDS011;3018;48.730;9.336;2023-04-15T14:46:29;1.23;;;1.10;;
5981;SDS011;3018;48.730;9.336;2023-04-15T14:48:56;1.27;;;1.17;;
5981;SDS011;3018;48.730;9.336;2023-04-15T14:51:22;0.95;;;0.80;;
5981;SDS011;3018;48.730;9.336;2023-04-15T14:53:48;1.30;;;0.98;;
5981;SDS011;3018;48.730;9.336;2023-04-15T14:56:14;1.00;;;0.90;;
5981;SDS011;3018;48.730;9.336;2023-04-15T14:58:41;1.42;;;0.80;;
5981;SDS011;3018;48.730;9.336;2023-04-15T15:01:07;1.20;;;1.10;;
5981;SDS011;3018;48.730;9.336;2023-04-15T15:03:34;1.00;;;1.00;;
5981;SDS011;3018;48.730;9.336;2023-04-15T15:06:01;1.35;;;1.08;;
5981;SDS011;3018;48.730;9.336;2023-04-15T15:08:27;2.53;;;1.65;;
5981;SDS011;3018;48.730;9.336;2023-04-15T15:10:54;0.98;;;0.98;;
5981;SDS011;3018;48.730;9.336;2023-04-15T15:13:20;3.30;;;1.10;;